sensor_id;sensor_type;location;lat;lon;timestamp;temperature;humidity
52415;DHT22;38340;52.964;6.086;2022-11-15T00:00:17;6.40;99.90
52415;DHT22;38340;52.964;6.086;2022-11-15T00:02:43;6.50;99.90
52415;DHT22;38340;52.964;6.086;2022-11-15T00:05:09;6.50;99.90
52415;DHT22;38340;52.964;6.086;2022-11-15T00:07:34;6.60;99.90
52415;DHT22;38340;52.964;6.086;2022-11-15T00:10:00;6.60;99.90
52415;DHT22;38340;52.964;6.086;2022-11-15T00:12:27;6.70;99.90
52415;DHT22;38340;52.964;6.086;2022-11-15T00:14:53;6.70;99.90
52415;DHT22;38340;52.964;6.086;2022-11-15T00:17:19;6.80;99.90
52415;DHT22;38340;52.964;6.086;2022-11-15T00:19:45;6.80;99.90
52415;DHT22;38340;52.964;6.086;2022-11-15T00:22:10;6.90;99.90
52415;DHT22;38340;52.964;6.086;2022-11-15T00:24:36;6.90;99.90
52415;DHT22;38340;52.964;6.086;2022-11-15T00:27:02;7.00;99.90
52415;DHT22;38340;52.964;6.086;2022-11-15T00:29:28;7.00;99.90
52415;DHT22;38340;52.964;6.086;2022-11-15T00:31:53;7.00;99.90
52415;DHT22;38340;52.964;6.086;2022-11-15T00:34:19;7.00;99.90
52415;DHT22;38340;52.964;6.086;2022-11-15T00:36:45;7.00;99.90
52415;DHT22;38340;52.964;6.086;2022-11-15T00:39:10;7.00;99.90
52415;DHT22;38340;52.964;6.086;2022-11-15T00:41:36;7.10;99.90
52415;DHT22;38340;52.964;6.086;2022-11-15T00:44:02;7.10;99.90
52415;DHT22;38340;52.964;6.086;2022-11-15T00:46:27;7.10;99.90
52415;DHT22;38340;52.964;6.086;2022-11-15T00:48:53;7.10;99.90
52415;DHT22;38340;52.964;6.086;2022-11-15T00:51:19;7.10;99.90
52415;DHT22;38340;52.964;6.086;2022-11-15T00:53:44;7.10;99.90
52415;DHT22;38340;52.964;6.086;2022-11-15T00:56:10;7.10;99.90
52415;DHT22;38340;52.964;6.086;2022-11-15T00:58:36;7.10;99.90
52415;DHT22;38340;52.964;6.086;2022-11-15T01:01:10;7.10;99.90
52415;DHT22;38340;52.964;6.086;2022-11-15T01:03:36;7.00;99.90
52415;DHT22;38340;52.964;6.086;2022-11-15T01:06:02;7.00;99.90
52415;DHT22;38340;52.964;6.086;2022-11-15T01:08:28;7.00;99.90
52415;DHT22;38340;52.964;6.086;2022-11-15T01:10:54;7.00;99.90
52415;DHT22;38340;52.964;6.086;2022-11-15T01:13:19;7.00;99.90
52415;DHT22;38340;52.964;6.086;2022-11-15T01:15:45;6.90;99.90
52415;DHT22;38340;52.964;6.086;2022-11-15T01:18:11;6.90;99.90
52415;DHT22;38340;52.964;6.086;2022-11-15T01:20:41;6.90;99.90
52415;DHT22;38340;52.964;6.086;2022-11-15T01:23:07;6.80;99.90
52415;DHT22;38340;52.964;6.086;2022-11-15T01:25:33;6.70;99.90
52415;DHT22;38340;52.964;6.086;2022-11-15T01:27:58;6.70;99.90
52415;DHT22;38340;52.964;6.086;2022-11-15T01:30:24;6.70;99.90
52415;DHT22;38340;52.964;6.086;2022-11-15T01:32:49;6.60;99.90
52415;DHT22;38340;52.964;6.086;2022-11-15T01:35:15;6.60;99.90
52415;DHT22;38340;52.964;6.086;2022-11-15T01:37:42;6.60;99.90
52415;DHT22;38340;52.964;6.086;2022-11-15T01:40:08;6.60;99.90
52415;DHT22;38340;52.964;6.086;2022-11-15T01:42:33;6.60;99.90
52415;DHT22;38340;52.964;6.086;2022-11-15T01:44:59;6.70;99.90
52415;DHT22;38340;52.964;6.086;2022-11-15T01:47:31;6.60;99.90
52415;DHT22;38340;52.964;6.086;2022-11-15T01:49:59;6.60;99.90
52415;DHT22;38340;52.964;6.086;2022-11-15T01:52:28;6.60;99.90
52415;DHT22;38340;52.964;6.086;2022-11-15T01:55:16;6.60;99.90
52415;DHT22;38340;52.964;6.086;2022-11-15T01:57:45;6.60;99.90
52415;DHT22;38340;52.964;6.086;2022-11-15T02:00:11;6.60;99.90
52415;DHT22;38340;52.964;6.086;2022-11-15T02:02:38;6.60;99.90
52415;DHT22;38340;52.964;6.086;2022-11-15T02:05:05;6.70;99.90
52415;DHT22;38340;52.964;6.086;2022-11-15T02:07:32;6.60;99.90
52415;DHT22;38340;52.964;6.086;2022-11-15T02:10:12;6.70;99.90
52415;DHT22;38340;52.964;6.086;2022-11-15T02:12:38;6.60;99.90
52415;DHT22;38340;52.964;6.086;2022-11-15T02:15:05;6.70;99.90
52415;DHT22;38340;52.964;6.086;2022-11-15T02:17:58;6.70;99.90
52415;DHT22;38340;52.964;6.086;2022-11-15T02:29:03;6.70;99.90
52415;DHT22;38340;52.964;6.086;2022-11-15T02:31:57;6.80;99.90
52415;DHT22;38340;52.964;6.086;2022-11-15T02:39:50;6.80;99.90
52415;DHT22;38340;52.964;6.086;2022-11-15T02:42:42;6.80;99.90
52415;DHT22;38340;52.964;6.086;2022-11-15T02:45:29;6.80;99.90
52415;DHT22;38340;52.964;6.086;2022-11-15T02:47:58;6.90;99.90
52415;DHT22;38340;52.964;6.086;2022-11-15T02:50:27;6.90;99.90
52415;DHT22;38340;52.964;6.086;2022-11-15T02:52:54;6.90;99.90
52415;DHT22;38340;52.964;6.086;2022-11-15T02:55:36;6.90;99.90
52415;DHT22;38340;52.964;6.086;2022-11-15T03:00:47;7.00;99.90
52415;DHT22;38340;52.964;6.086;2022-11-15T03:06:20;7.00;99.90
52415;DHT22;38340;52.964;6.086;2022-11-15T03:11:24;7.10;99.90
52415;DHT22;38340;52.964;6.086;2022-11-15T03:19:04;7.20;99.90
52415;DHT22;38340;52.964;6.086;2022-11-15T03:21:33;7.20;99.90
52415;DHT22;38340;52.964;6.086;2022-11-15T03:24:02;7.20;99.90
52415;DHT22;38340;52.964;6.086;2022-11-15T03:26:29;7.20;99.90
52415;DHT22;38340;52.964;6.086;2022-11-15T03:29:01;7.20;99.90
52415;DHT22;38340;52.964;6.086;2022-11-15T03:31:33;7.30;99.90
52415;DHT22;38340;52.964;6.086;2022-11-15T03:36:44;7.30;99.90
52415;DHT22;38340;52.964;6.086;2022-11-15T03:39:11;7.40;99.90
52415;DHT22;38340;52.964;6.086;2022-11-15T03:44:31;7.40;99.90
52415;DHT22;38340;52.964;6.086;2022-11-15T03:47:20;7.40;99.90
52415;DHT22;38340;52.964;6.086;2022-11-15T03:49:55;7.50;99.90
52415;DHT22;38340;52.964;6.086;2022-11-15T03:52:23;7.50;99.90
52415;DHT22;38340;52.964;6.086;2022-11-15T03:54:56;7.50;99.90
52415;DHT22;38340;52.964;6.086;2022-11-15T03:57:22;7.50;99.90
52415;DHT22;38340;52.964;6.086;2022-11-15T03:59:48;7.60;99.90
52415;DHT22;38340;52.964;6.086;2022-11-15T04:02:14;7.60;99.90
52415;DHT22;38340;52.964;6.086;2022-11-15T04:04:40;7.60;99.90
52415;DHT22;38340;52.964;6.086;2022-11-15T04:07:05;7.60;99.90
52415;DHT22;38340;52.964;6.086;2022-11-15T04:09:31;7.60;99.90
52415;DHT22;38340;52.964;6.086;2022-11-15T04:11:57;7.60;99.90
52415;DHT22;38340;52.964;6.086;2022-11-15T04:14:22;7.60;99.90
52415;DHT22;38340;52.964;6.086;2022-11-15T04:16:48;7.70;99.90
52415;DHT22;38340;52.964;6.086;2022-11-15T04:19:14;7.70;99.90
52415;DHT22;38340;52.964;6.086;2022-11-15T04:21:58;7.70;99.90
52415;DHT22;38340;52.964;6.086;2022-11-15T04:24:42;7.70;99.90
52415;DHT22;38340;52.964;6.086;2022-11-15T04:27:07;7.80;99.90
52415;DHT22;38340;52.964;6.086;2022-11-15T04:29:33;7.80;99.90
52415;DHT22;38340;52.964;6.086;2022-11-15T04:32:06;7.80;99.90
52415;DHT22;38340;52.964;6.086;2022-11-15T04:34:32;7.90;99.90
52415;DHT22;38340;52.964;6.086;2022-11-15T04:36:58;7.90;99.90
52415;DHT22;38340;52.964;6.086;2022-11-15T04:39:40;8.00;99.90
52415;DHT22;38340;52.964;6.086;2022-11-15T04:42:07;8.10;99.90
52415;DHT22;38340;52.964;6.086;2022-11-15T04:44:32;8.10;99.90
52415;DHT22;38340;52.964;6.086;2022-11-15T04:46:58;8.10;99.90
52415;DHT22;38340;52.964;6.086;2022-11-15T04:49:24;8.10;99.90
52415;DHT22;38340;52.964;6.086;2022-11-15T04:51:49;8.20;99.90
52415;DHT22;38340;52.964;6.086;2022-11-15T04:54:15;8.20;99.90
52415;DHT22;38340;52.964;6.086;2022-11-15T04:56:41;8.20;99.90
52415;DHT22;38340;52.964;6.086;2022-11-15T04:59:06;8.30;99.90
52415;DHT22;38340;52.964;6.086;2022-11-15T05:01:32;8.30;99.90
52415;DHT22;38340;52.964;6.086;2022-11-15T05:03:57;8.40;99.90
52415;DHT22;38340;52.964;6.086;2022-11-15T05:06:42;8.40;99.90
52415;DHT22;38340;52.964;6.086;2022-11-15T05:09:07;8.50;99.90
52415;DHT22;38340;52.964;6.086;2022-11-15T05:11:33;8.50;99.90
52415;DHT22;38340;52.964;6.086;2022-11-15T05:13:59;8.60;99.90
52415;DHT22;38340;52.964;6.086;2022-11-15T05:16:24;8.60;99.90
52415;DHT22;38340;52.964;6.086;2022-11-15T05:18:51;8.60;99.90
52415;DHT22;38340;52.964;6.086;2022-11-15T05:21:17;8.70;99.90
52415;DHT22;38340;52.964;6.086;2022-11-15T05:23:43;8.80;99.90
52415;DHT22;38340;52.964;6.086;2022-11-15T05:26:09;8.80;99.90
52415;DHT22;38340;52.964;6.086;2022-11-15T05:28:36;8.80;99.90
52415;DHT22;38340;52.964;6.086;2022-11-15T05:31:03;8.90;99.90
52415;DHT22;38340;52.964;6.086;2022-11-15T05:33:29;8.90;99.90
52415;DHT22;38340;52.964;6.086;2022-11-15T05:35:59;8.90;99.90
52415;DHT22;38340;52.964;6.086;2022-11-15T05:38:26;8.90;99.90
52415;DHT22;38340;52.964;6.086;2022-11-15T05:40:52;9.00;99.90
52415;DHT22;38340;52.964;6.086;2022-11-15T05:43:17;9.00;99.90
52415;DHT22;38340;52.964;6.086;2022-11-15T05:45:43;9.10;99.90
52415;DHT22;38340;52.964;6.086;2022-11-15T05:48:10;9.10;99.90
52415;DHT22;38340;52.964;6.086;2022-11-15T05:50:36;9.10;99.90
52415;DHT22;38340;52.964;6.086;2022-11-15T05:53:03;9.10;99.90
52415;DHT22;38340;52.964;6.086;2022-11-15T05:55:30;9.10;99.90
52415;DHT22;38340;52.964;6.086;2022-11-15T05:57:56;9.10;99.90
52415;DHT22;38340;52.964;6.086;2022-11-15T06:00:22;9.10;99.90
52415;DHT22;38340;52.964;6.086;2022-11-15T06:02:47;9.20;99.90
52415;DHT22;38340;52.964;6.086;2022-11-15T06:05:13;9.20;99.90
52415;DHT22;38340;52.964;6.086;2022-11-15T06:07:39;9.20;99.90
52415;DHT22;38340;52.964;6.086;2022-11-15T06:10:05;9.20;99.90
52415;DHT22;38340;52.964;6.086;2022-11-15T06:12:31;9.30;99.90
52415;DHT22;38340;52.964;6.086;2022-11-15T06:14:56;9.30;99.90
52415;DHT22;38340;52.964;6.086;2022-11-15T06:17:22;9.30;99.90
52415;DHT22;38340;52.964;6.086;2022-11-15T06:19:48;9.30;99.90
52415;DHT22;38340;52.964;6.086;2022-11-15T06:22:13;9.30;99.90
52415;DHT22;38340;52.964;6.086;2022-11-15T06:24:39;9.30;99.90
52415;DHT22;38340;52.964;6.086;2022-11-15T06:27:05;9.40;99.90
52415;DHT22;38340;52.964;6.086;2022-11-15T06:29:30;9.40;99.90
52415;DHT22;38340;52.964;6.086;2022-11-15T06:31:56;9.40;99.90
52415;DHT22;38340;52.964;6.086;2022-11-15T06:34:22;9.40;99.90
52415;DHT22;38340;52.964;6.086;2022-11-15T06:36:47;9.40;99.90
52415;DHT22;38340;52.964;6.086;2022-11-15T06:39:13;9.50;99.90
52415;DHT22;38340;52.964;6.086;2022-11-15T06:41:39;9.50;99.90
52415;DHT22;38340;52.964;6.086;2022-11-15T06:44:04;9.50;99.90
52415;DHT22;38340;52.964;6.086;2022-11-15T06:46:30;9.50;99.90
52415;DHT22;38340;52.964;6.086;2022-11-15T06:48:55;9.60;99.90
52415;DHT22;38340;52.964;6.086;2022-11-15T06:51:21;9.60;99.90
52415;DHT22;38340;52.964;6.086;2022-11-15T06:53:47;9.60;99.90
52415;DHT22;38340;52.964;6.086;2022-11-15T06:56:12;9.60;99.90
52415;DHT22;38340;52.964;6.086;2022-11-15T06:58:38;9.60;99.90
52415;DHT22;38340;52.964;6.086;2022-11-15T07:01:06;9.60;99.90
52415;DHT22;38340;52.964;6.086;2022-11-15T07:03:35;9.70;99.90
52415;DHT22;38340;52.964;6.086;2022-11-15T07:06:01;9.70;99.90
52415;DHT22;38340;52.964;6.086;2022-11-15T07:08:28;9.70;99.90
52415;DHT22;38340;52.964;6.086;2022-11-15T07:10:58;9.70;99.90
52415;DHT22;38340;52.964;6.086;2022-11-15T07:13:26;9.70;99.90
52415;DHT22;38340;52.964;6.086;2022-11-15T07:15:52;9.70;99.90
52415;DHT22;38340;52.964;6.086;2022-11-15T07:18:18;9.70;99.90
52415;DHT22;38340;52.964;6.086;2022-11-15T07:20:43;9.80;99.90
52415;DHT22;38340;52.964;6.086;2022-11-15T07:23:09;9.80;99.90
52415;DHT22;38340;52.964;6.086;2022-11-15T07:25:35;9.80;99.90
52415;DHT22;38340;52.964;6.086;2022-11-15T07:28:01;9.80;99.90
52415;DHT22;38340;52.964;6.086;2022-11-15T07:30:27;9.80;99.90
52415;DHT22;38340;52.964;6.086;2022-11-15T07:32:57;9.80;99.90
52415;DHT22;38340;52.964;6.086;2022-11-15T07:35:25;9.80;99.90
52415;DHT22;38340;52.964;6.086;2022-11-15T07:37:59;9.80;99.90
52415;DHT22;38340;52.964;6.086;2022-11-15T07:40:26;9.90;99.90
52415;DHT22;38340;52.964;6.086;2022-11-15T07:42:51;9.90;99.90
52415;DHT22;38340;52.964;6.086;2022-11-15T07:45:22;9.90;99.90
52415;DHT22;38340;52.964;6.086;2022-11-15T07:47:52;9.90;99.90
52415;DHT22;38340;52.964;6.086;2022-11-15T07:50:17;10.00;99.90
52415;DHT22;38340;52.964;6.086;2022-11-15T07:52:43;9.90;99.90
52415;DHT22;38340;52.964;6.086;2022-11-15T07:55:09;10.00;99.90
52415;DHT22;38340;52.964;6.086;2022-11-15T07:57:35;10.00;99.90
52415;DHT22;38340;52.964;6.086;2022-11-15T08:00:02;10.00;99.90
52415;DHT22;38340;52.964;6.086;2022-11-15T08:02:27;10.10;99.90
52415;DHT22;38340;52.964;6.086;2022-11-15T08:04:53;10.10;99.90
52415;DHT22;38340;52.964;6.086;2022-11-15T08:07:19;10.20;99.90
52415;DHT22;38340;52.964;6.086;2022-11-15T08:09:44;10.20;99.90
52415;DHT22;38340;52.964;6.086;2022-11-15T08:12:10;10.20;99.90
52415;DHT22;38340;52.964;6.086;2022-11-15T08:14:36;10.20;99.90
52415;DHT22;38340;52.964;6.086;2022-11-15T08:17:01;10.30;99.90
52415;DHT22;38340;52.964;6.086;2022-11-15T08:19:27;10.30;99.90
52415;DHT22;38340;52.964;6.086;2022-11-15T08:21:53;10.30;99.90
52415;DHT22;38340;52.964;6.086;2022-11-15T08:24:19;10.40;99.90
52415;DHT22;38340;52.964;6.086;2022-11-15T08:26:45;10.40;99.90
52415;DHT22;38340;52.964;6.086;2022-11-15T08:29:12;10.40;99.90
52415;DHT22;38340;52.964;6.086;2022-11-15T08:31:38;10.40;99.90
52415;DHT22;38340;52.964;6.086;2022-11-15T08:34:04;10.40;99.90
52415;DHT22;38340;52.964;6.086;2022-11-15T08:36:30;10.40;99.90
52415;DHT22;38340;52.964;6.086;2022-11-15T08:38:56;10.50;99.90
52415;DHT22;38340;52.964;6.086;2022-11-15T08:41:30;10.50;99.90
52415;DHT22;38340;52.964;6.086;2022-11-15T08:43:56;10.60;99.90
52415;DHT22;38340;52.964;6.086;2022-11-15T08:46:22;10.60;99.90
52415;DHT22;38340;52.964;6.086;2022-11-15T08:48:47;10.60;99.90
52415;DHT22;38340;52.964;6.086;2022-11-15T08:51:13;10.70;99.90
52415;DHT22;38340;52.964;6.086;2022-11-15T08:53:39;10.70;99.90
52415;DHT22;38340;52.964;6.086;2022-11-15T08:56:12;10.70;99.90
52415;DHT22;38340;52.964;6.086;2022-11-15T08:58:38;10.80;99.90
52415;DHT22;38340;52.964;6.086;2022-11-15T09:01:04;10.80;99.90
52415;DHT22;38340;52.964;6.086;2022-11-15T09:03:31;10.80;99.90
52415;DHT22;38340;52.964;6.086;2022-11-15T09:05:59;10.80;99.90
52415;DHT22;38340;52.964;6.086;2022-11-15T09:08:29;10.90;99.90
52415;DHT22;38340;52.964;6.086;2022-11-15T09:10:55;10.90;99.90
52415;DHT22;38340;52.964;6.086;2022-11-15T09:13:21;11.00;99.90
52415;DHT22;38340;52.964;6.086;2022-11-15T09:15:47;10.90;99.90
52415;DHT22;38340;52.964;6.086;2022-11-15T09:18:13;11.00;99.90
52415;DHT22;38340;52.964;6.086;2022-11-15T09:20:38;11.00;99.90
52415;DHT22;38340;52.964;6.086;2022-11-15T09:23:04;11.10;99.90
52415;DHT22;38340;52.964;6.086;2022-11-15T09:25:30;11.10;99.90
52415;DHT22;38340;52.964;6.086;2022-11-15T09:27:56;11.10;99.90
52415;DHT22;38340;52.964;6.086;2022-11-15T09:30:23;11.20;99.90
52415;DHT22;38340;52.964;6.086;2022-11-15T09:32:48;11.30;99.90
52415;DHT22;38340;52.964;6.086;2022-11-15T09:35:14;11.30;99.90
52415;DHT22;38340;52.964;6.086;2022-11-15T09:37:40;11.40;99.90
52415;DHT22;38340;52.964;6.086;2022-11-15T09:40:11;11.40;99.90
52415;DHT22;38340;52.964;6.086;2022-11-15T09:52:58;11.70;99.90
52415;DHT22;38340;52.964;6.086;2022-11-15T09:55:33;11.70;99.90
52415;DHT22;38340;52.964;6.086;2022-11-15T09:58:08;11.70;99.90
52415;DHT22;38340;52.964;6.086;2022-11-15T10:00:38;11.70;99.90
52415;DHT22;38340;52.964;6.086;2022-11-15T10:03:29;11.60;99.90
52415;DHT22;38340;52.964;6.086;2022-11-15T10:06:01;11.60;99.90
52415;DHT22;38340;52.964;6.086;2022-11-15T10:11:16;11.60;99.90
52415;DHT22;38340;52.964;6.086;2022-11-15T10:13:45;11.60;99.90
52415;DHT22;38340;52.964;6.086;2022-11-15T10:19:31;11.60;99.90
52415;DHT22;38340;52.964;6.086;2022-11-15T10:24:39;11.70;99.90
52415;DHT22;38340;52.964;6.086;2022-11-15T10:27:18;11.70;99.90
52415;DHT22;38340;52.964;6.086;2022-11-15T10:29:47;11.70;99.90
52415;DHT22;38340;52.964;6.086;2022-11-15T10:32:14;11.70;99.90
52415;DHT22;38340;52.964;6.086;2022-11-15T10:34:41;11.70;99.90
52415;DHT22;38340;52.964;6.086;2022-11-15T10:37:06;11.70;99.90
52415;DHT22;38340;52.964;6.086;2022-11-15T10:39:32;11.80;99.90
52415;DHT22;38340;52.964;6.086;2022-11-15T10:42:27;11.80;99.90
52415;DHT22;38340;52.964;6.086;2022-11-15T10:44:53;11.90;99.90
52415;DHT22;38340;52.964;6.086;2022-11-15T10:47:30;11.90;99.90
52415;DHT22;38340;52.964;6.086;2022-11-15T10:52:29;12.00;99.90
52415;DHT22;38340;52.964;6.086;2022-11-15T10:57:37;11.90;99.90
52415;DHT22;38340;52.964;6.086;2022-11-15T11:00:07;11.90;99.90
52415;DHT22;38340;52.964;6.086;2022-11-15T11:05:31;12.00;99.90
52415;DHT22;38340;52.964;6.086;2022-11-15T11:08:05;12.00;99.90
52415;DHT22;38340;52.964;6.086;2022-11-15T11:11:04;12.00;99.90
52415;DHT22;38340;52.964;6.086;2022-11-15T11:13:33;12.10;99.90
52415;DHT22;38340;52.964;6.086;2022-11-15T11:27:28;12.00;99.90
52415;DHT22;38340;52.964;6.086;2022-11-15T11:30:06;12.00;99.90
52415;DHT22;38340;52.964;6.086;2022-11-15T11:41:13;12.00;99.90
52415;DHT22;38340;52.964;6.086;2022-11-15T11:46:55;12.00;99.90
52415;DHT22;38340;52.964;6.086;2022-11-15T11:55:17;12.00;99.90
52415;DHT22;38340;52.964;6.086;2022-11-15T12:00:24;12.10;99.90
52415;DHT22;38340;52.964;6.086;2022-11-15T12:05:46;12.30;99.90
52415;DHT22;38340;52.964;6.086;2022-11-15T12:11:14;12.40;99.90
52415;DHT22;38340;52.964;6.086;2022-11-15T12:13:43;12.50;99.90
52415;DHT22;38340;52.964;6.086;2022-11-15T12:16:21;12.60;99.90
52415;DHT22;38340;52.964;6.086;2022-11-15T12:18:53;12.70;99.90
52415;DHT22;38340;52.964;6.086;2022-11-15T12:27:20;13.00;99.90
52415;DHT22;38340;52.964;6.086;2022-11-15T12:29:50;13.10;99.90
52415;DHT22;38340;52.964;6.086;2022-11-15T12:32:31;13.20;99.90
52415;DHT22;38340;52.964;6.086;2022-11-15T12:34:59;12.90;99.90
52415;DHT22;38340;52.964;6.086;2022-11-15T12:40:12;12.90;99.90
52415;DHT22;38340;52.964;6.086;2022-11-15T12:43:01;13.00;99.90
52415;DHT22;38340;52.964;6.086;2022-11-15T12:45:34;13.00;99.90
52415;DHT22;38340;52.964;6.086;2022-11-15T12:53:32;13.00;99.90
52415;DHT22;38340;52.964;6.086;2022-11-15T13:01:10;13.00;99.90
52415;DHT22;38340;52.964;6.086;2022-11-15T13:11:55;12.60;99.90
52415;DHT22;38340;52.964;6.086;2022-11-15T13:17:26;12.50;99.90
52415;DHT22;38340;52.964;6.086;2022-11-15T13:30:58;12.20;99.90
52415;DHT22;38340;52.964;6.086;2022-11-15T13:33:33;12.20;99.90
52415;DHT22;38340;52.964;6.086;2022-11-15T13:36:02;12.10;99.90
52415;DHT22;38340;52.964;6.086;2022-11-15T13:38:32;12.10;99.90
52415;DHT22;38340;52.964;6.086;2022-11-15T13:40:59;12.20;99.90
52415;DHT22;38340;52.964;6.086;2022-11-15T13:46:07;12.20;99.90
52415;DHT22;38340;52.964;6.086;2022-11-15T13:48:33;12.20;99.90
52415;DHT22;38340;52.964;6.086;2022-11-15T13:51:03;12.10;99.90
52415;DHT22;38340;52.964;6.086;2022-11-15T13:53:32;12.10;99.90
52415;DHT22;38340;52.964;6.086;2022-11-15T13:55:59;12.10;99.90
52415;DHT22;38340;52.964;6.086;2022-11-15T13:58:25;12.10;99.90
52415;DHT22;38340;52.964;6.086;2022-11-15T14:01:00;12.00;99.90
52415;DHT22;38340;52.964;6.086;2022-11-15T14:03:32;11.90;99.90
52415;DHT22;38340;52.964;6.086;2022-11-15T14:06:09;11.90;99.90
52415;DHT22;38340;52.964;6.086;2022-11-15T14:08:38;11.90;99.90
52415;DHT22;38340;52.964;6.086;2022-11-15T14:11:17;11.80;99.90
52415;DHT22;38340;52.964;6.086;2022-11-15T14:16:48;11.70;99.90
52415;DHT22;38340;52.964;6.086;2022-11-15T14:22:16;11.50;99.90
52415;DHT22;38340;52.964;6.086;2022-11-15T14:25:31;11.50;99.90
52415;DHT22;38340;52.964;6.086;2022-11-15T14:27:32;11.40;99.90
52415;DHT22;38340;52.964;6.086;2022-11-15T14:29:58;11.30;99.90
52415;DHT22;38340;52.964;6.086;2022-11-15T14:32:29;11.30;99.90
52415;DHT22;38340;52.964;6.086;2022-11-15T14:34:59;11.20;99.90
52415;DHT22;38340;52.964;6.086;2022-11-15T14:37:30;11.20;99.90
52415;DHT22;38340;52.964;6.086;2022-11-15T14:40:01;11.10;99.90
52415;DHT22;38340;52.964;6.086;2022-11-15T14:42:27;11.10;99.90
52415;DHT22;38340;52.964;6.086;2022-11-15T14:44:53;11.00;99.90
52415;DHT22;38340;52.964;6.086;2022-11-15T14:47:19;11.00;99.90
52415;DHT22;38340;52.964;6.086;2022-11-15T14:49:45;11.00;99.90
52415;DHT22;38340;52.964;6.086;2022-11-15T14:54:45;10.90;99.90
52415;DHT22;38340;52.964;6.086;2022-11-15T14:57:10;10.90;99.90
52415;DHT22;38340;52.964;6.086;2022-11-15T14:59:36;10.90;99.90
52415;DHT22;38340;52.964;6.086;2022-11-15T15:02:01;10.90;99.90
52415;DHT22;38340;52.964;6.086;2022-11-15T15:04:27;10.90;99.90
52415;DHT22;38340;52.964;6.086;2022-11-15T15:06:53;10.90;99.90
52415;DHT22;38340;52.964;6.086;2022-11-15T15:09:18;10.90;99.90
52415;DHT22;38340;52.964;6.086;2022-11-15T15:11:44;10.90;99.90
52415;DHT22;38340;52.964;6.086;2022-11-15T15:14:11;10.90;99.90
52415;DHT22;38340;52.964;6.086;2022-11-15T15:16:38;10.90;99.90
52415;DHT22;38340;52.964;6.086;2022-11-15T15:19:04;10.90;99.90
52415;DHT22;38340;52.964;6.086;2022-11-15T15:21:29;10.90;99.90
52415;DHT22;38340;52.964;6.086;2022-11-15T15:23:56;10.80;99.90
52415;DHT22;38340;52.964;6.086;2022-11-15T15:26:25;10.80;99.90
52415;DHT22;38340;52.964;6.086;2022-11-15T15:28:51;10.80;99.90
52415;DHT22;38340;52.964;6.086;2022-11-15T15:31:17;10.70;99.90
52415;DHT22;38340;52.964;6.086;2022-11-15T15:33:43;10.60;99.90
52415;DHT22;38340;52.964;6.086;2022-11-15T15:36:14;10.60;99.90
52415;DHT22;38340;52.964;6.086;2022-11-15T15:38:40;10.50;99.90
52415;DHT22;38340;52.964;6.086;2022-11-15T15:41:14;10.40;99.90
52415;DHT22;38340;52.964;6.086;2022-11-15T15:43:40;10.40;99.90
52415;DHT22;38340;52.964;6.086;2022-11-15T15:46:14;10.30;99.90
52415;DHT22;38340;52.964;6.086;2022-11-15T15:48:44;10.30;99.90
52415;DHT22;38340;52.964;6.086;2022-11-15T15:51:10;10.10;99.90
52415;DHT22;38340;52.964;6.086;2022-11-15T15:53:37;10.10;99.90
52415;DHT22;38340;52.964;6.086;2022-11-15T15:56:03;10.10;99.90
52415;DHT22;38340;52.964;6.086;2022-11-15T15:58:28;10.10;99.90
52415;DHT22;38340;52.964;6.086;2022-11-15T16:00:54;10.10;99.90
52415;DHT22;38340;52.964;6.086;2022-11-15T16:03:20;10.10;99.90
52415;DHT22;38340;52.964;6.086;2022-11-15T16:05:45;10.10;99.90
52415;DHT22;38340;52.964;6.086;2022-11-15T16:08:19;10.10;99.90
52415;DHT22;38340;52.964;6.086;2022-11-15T16:10:45;10.10;99.90
52415;DHT22;38340;52.964;6.086;2022-11-15T16:13:11;10.10;99.90
52415;DHT22;38340;52.964;6.086;2022-11-15T16:15:37;10.20;99.90
52415;DHT22;38340;52.964;6.086;2022-11-15T16:18:03;10.20;99.90
52415;DHT22;38340;52.964;6.086;2022-11-15T16:20:38;10.30;99.90
52415;DHT22;38340;52.964;6.086;2022-11-15T16:23:11;10.30;99.90
52415;DHT22;38340;52.964;6.086;2022-11-15T16:28:32;10.40;99.90
52415;DHT22;38340;52.964;6.086;2022-11-15T16:31:03;10.40;99.90
52415;DHT22;38340;52.964;6.086;2022-11-15T16:33:29;10.40;99.90
52415;DHT22;38340;52.964;6.086;2022-11-15T16:35:55;10.50;99.90
52415;DHT22;38340;52.964;6.086;2022-11-15T16:38:21;10.50;99.90
52415;DHT22;38340;52.964;6.086;2022-11-15T16:40:47;10.50;99.90
52415;DHT22;38340;52.964;6.086;2022-11-15T16:43:13;10.60;99.90
52415;DHT22;38340;52.964;6.086;2022-11-15T16:45:38;10.60;99.90
52415;DHT22;38340;52.964;6.086;2022-11-15T16:48:05;10.60;99.90
52415;DHT22;38340;52.964;6.086;2022-11-15T16:50:33;10.60;99.90
52415;DHT22;38340;52.964;6.086;2022-11-15T16:53:04;10.70;99.90
52415;DHT22;38340;52.964;6.086;2022-11-15T16:55:29;10.70;99.90
52415;DHT22;38340;52.964;6.086;2022-11-15T16:57:56;10.70;99.90
52415;DHT22;38340;52.964;6.086;2022-11-15T17:00:23;10.70;99.90
52415;DHT22;38340;52.964;6.086;2022-11-15T17:02:50;10.80;99.90
52415;DHT22;38340;52.964;6.086;2022-11-15T17:05:18;10.80;99.90
52415;DHT22;38340;52.964;6.086;2022-11-15T17:07:47;10.80;99.90
52415;DHT22;38340;52.964;6.086;2022-11-15T17:10:20;10.90;99.90
52415;DHT22;38340;52.964;6.086;2022-11-15T17:12:46;10.90;99.90
52415;DHT22;38340;52.964;6.086;2022-11-15T17:15:12;11.00;99.90
52415;DHT22;38340;52.964;6.086;2022-11-15T17:17:39;11.00;99.90
52415;DHT22;38340;52.964;6.086;2022-11-15T17:20:06;11.00;99.90
52415;DHT22;38340;52.964;6.086;2022-11-15T17:22:36;11.00;99.90
52415;DHT22;38340;52.964;6.086;2022-11-15T17:25:03;11.00;99.90
52415;DHT22;38340;52.964;6.086;2022-11-15T17:27:29;11.00;99.90
52415;DHT22;38340;52.964;6.086;2022-11-15T17:29:55;11.10;99.90
52415;DHT22;38340;52.964;6.086;2022-11-15T17:32:20;11.10;99.90
52415;DHT22;38340;52.964;6.086;2022-11-15T17:34:46;11.10;99.90
52415;DHT22;38340;52.964;6.086;2022-11-15T17:37:12;11.10;99.90
52415;DHT22;38340;52.964;6.086;2022-11-15T17:39:37;11.10;99.90
52415;DHT22;38340;52.964;6.086;2022-11-15T17:42:03;11.10;99.90
52415;DHT22;38340;52.964;6.086;2022-11-15T17:44:29;11.10;99.90
52415;DHT22;38340;52.964;6.086;2022-11-15T17:46:55;11.00;99.90
52415;DHT22;38340;52.964;6.086;2022-11-15T17:49:21;11.10;99.90
52415;DHT22;38340;52.964;6.086;2022-11-15T17:51:46;11.10;99.90
52415;DHT22;38340;52.964;6.086;2022-11-15T17:54:12;11.10;99.90
52415;DHT22;38340;52.964;6.086;2022-11-15T17:56:39;11.10;99.90
52415;DHT22;38340;52.964;6.086;2022-11-15T17:59:06;11.10;99.90
52415;DHT22;38340;52.964;6.086;2022-11-15T18:01:33;11.10;99.90
52415;DHT22;38340;52.964;6.086;2022-11-15T18:04:01;11.10;99.90
52415;DHT22;38340;52.964;6.086;2022-11-15T18:06:30;11.20;99.90
52415;DHT22;38340;52.964;6.086;2022-11-15T18:08:57;11.10;99.90
52415;DHT22;38340;52.964;6.086;2022-11-15T18:11:31;11.20;99.90
52415;DHT22;38340;52.964;6.086;2022-11-15T18:14:02;11.20;99.90
52415;DHT22;38340;52.964;6.086;2022-11-15T18:16:31;11.20;99.90